createdAt,value
2022-11-15T00:00:58.140Z,0.99
2022-11-15T00:03:27.649Z,1.02
2022-11-15T00:05:54.499Z,1.06
2022-11-15T00:08:21.633Z,1.11
2022-11-15T00:11:02.288Z,1.12
2022-11-15T00:13:29.335Z,1.14
2022-11-15T00:16:01.042Z,1.15
2022-11-15T00:18:28.093Z,1.16
2022-11-15T00:20:54.733Z,1.19
2022-11-15T00:23:21.272Z,1.19
2022-11-15T00:25:47.733Z,1.18
2022-11-15T00:28:14.249Z,1.15
2022-11-15T00:30:40.681Z,1.13
2022-11-15T00:33:07.947Z,1.12
2022-11-15T00:35:35.721Z,1.12
2022-11-15T00:38:02.994Z,1.12
2022-11-15T00:40:30.143Z,1.14
2022-11-15T00:42:56.937Z,1.15
2022-11-15T00:45:23.732Z,1.14
2022-11-15T00:47:50.306Z,1.15
2022-11-15T00:50:17.608Z,1.17
2022-11-15T00:52:44.992Z,1.20
2022-11-15T00:55:16.711Z,1.20
2022-11-15T00:57:43.500Z,1.16
2022-11-15T01:00:11.434Z,1.13
2022-11-15T01:02:38.427Z,1.14
2022-11-15T01:05:05.835Z,1.15
2022-11-15T01:07:32.732Z,1.13
2022-11-15T01:09:59.327Z,1.09
2022-11-15T01:12:25.817Z,1.07
2022-11-15T01:14:52.251Z,1.09
2022-11-15T01:17:18.790Z,1.09
2022-11-15T01:19:45.248Z,1.06
2022-11-15T01:22:11.656Z,1.07
2022-11-15T01:24:38.210Z,1.07
2022-11-15T01:27:04.755Z,1.10
2022-11-15T01:29:31.294Z,1.13
2022-11-15T01:31:57.833Z,1.15
2022-11-15T01:34:24.274Z,1.14
2022-11-15T01:36:51.211Z,1.09
2022-11-15T01:39:17.939Z,1.06
2022-11-15T01:41:44.920Z,1.06
2022-11-15T01:44:42.594Z,1.07
2022-11-15T01:47:26.791Z,1.07
2022-11-15T01:50:01.816Z,1.07
2022-11-15T01:52:32.045Z,1.07
2022-11-15T01:55:08.901Z,1.06
2022-11-15T01:57:36.115Z,1.05
2022-11-15T02:00:05.793Z,1.03
2022-11-15T02:02:34.051Z,1.00
2022-11-15T02:05:01.007Z,0.96
2022-11-15T02:07:27.626Z,0.93
2022-11-15T02:09:55.508Z,0.91
2022-11-15T02:12:23.136Z,0.88
2022-11-15T02:14:53.813Z,0.88
2022-11-15T02:18:02.377Z,0.86
2022-11-15T02:20:42.602Z,0.83
2022-11-15T02:23:56.757Z,0.83
2022-11-15T02:26:47.670Z,0.82
2022-11-15T02:29:36.400Z,0.78
2022-11-15T02:32:24.235Z,0.75
2022-11-15T02:35:17.804Z,0.70
2022-11-15T02:37:55.450Z,0.66
2022-11-15T02:40:43.698Z,0.63
2022-11-15T02:43:16.799Z,0.60
2022-11-15T02:45:52.096Z,0.58
2022-11-15T02:48:19.503Z,0.56
2022-11-15T02:50:46.967Z,0.57
2022-11-15T02:53:15.549Z,0.56
2022-11-15T02:55:46.905Z,0.56
2022-11-15T02:58:32.122Z,0.57
2022-11-15T03:01:05.524Z,0.55
2022-11-15T03:03:38.361Z,0.52
2022-11-15T03:06:24.584Z,0.47
2022-11-15T03:09:09.286Z,0.45
2022-11-15T03:11:41.824Z,0.43
2022-11-15T03:14:28.931Z,0.42
2022-11-15T03:17:16.976Z,0.37
2022-11-15T03:19:51.093Z,0.31
2022-11-15T03:22:21.325Z,0.26
2022-11-15T03:24:53.696Z,0.23
2022-11-15T03:27:26.545Z,0.20
2022-11-15T03:30:01.730Z,0.19
2022-11-15T03:32:32.478Z,0.17
2022-11-15T03:35:20.420Z,0.16
2022-11-15T03:38:02.182Z,0.15
2022-11-15T03:40:36.900Z,0.12
2022-11-15T03:43:37.791Z,0.08
2022-11-15T03:46:12.152Z,0.06
2022-11-15T03:48:44.671Z,0.03
2022-11-15T03:51:11.908Z,0.03
2022-11-15T03:53:38.415Z,0.03
2022-11-15T03:56:05.052Z,0.01
2022-11-15T03:58:31.687Z,-0.02
2022-11-15T04:00:58.213Z,-0.05
2022-11-15T04:03:24.777Z,-0.08
2022-11-15T04:05:51.414Z,-0.13
2022-11-15T04:08:18.159Z,-0.18
2022-11-15T04:10:44.743Z,-0.21
2022-11-15T04:13:11.213Z,-0.23
2022-11-15T04:15:37.663Z,-0.25
2022-11-15T04:18:04.152Z,-0.28
2022-11-15T04:20:32.288Z,-0.31
2022-11-15T04:23:00.783Z,-0.34
2022-11-15T04:25:32.004Z,-0.37
2022-11-15T04:27:58.892Z,-0.38
2022-11-15T04:30:25.381Z,-0.38
2022-11-15T04:32:51.855Z,-0.38
2022-11-15T04:35:18.350Z,-0.40
2022-11-15T04:37:49.139Z,-0.41
2022-11-15T04:40:16.380Z,-0.41
2022-11-15T04:42:43.443Z,-0.43
2022-11-15T04:45:11.028Z,-0.41
2022-11-15T04:47:37.548Z,-0.41
2022-11-15T04:50:04.663Z,-0.41
2022-11-15T04:52:31.115Z,-0.41
2022-11-15T04:54:57.553Z,-0.42
2022-11-15T04:57:24.049Z,-0.43
2022-11-15T04:59:50.584Z,-0.44
2022-11-15T05:02:17.104Z,-0.46
2022-11-15T05:04:43.843Z,-0.48
2022-11-15T05:07:10.389Z,-0.52
2022-11-15T05:09:36.971Z,-0.55
2022-11-15T05:12:03.573Z,-0.59
2022-11-15T05:14:30.120Z,-0.63
2022-11-15T05:16:56.651Z,-0.67
2022-11-15T05:19:23.191Z,-0.70
2022-11-15T05:21:49.727Z,-0.75
2022-11-15T05:24:16.152Z,-0.79
2022-11-15T05:26:42.639Z,-0.83
2022-11-15T05:29:10.684Z,-0.84
2022-11-15T05:31:41.687Z,-0.85
2022-11-15T05:34:08.380Z,-0.87
2022-11-15T05:36:42.968Z,-0.89
2022-11-15T05:39:09.852Z,-0.91
2022-11-15T05:41:48.782Z,-0.92
2022-11-15T05:44:18.883Z,-0.91
2022-11-15T05:46:46.364Z,-0.91
2022-11-15T05:49:17.021Z,-0.88
2022-11-15T05:51:45.579Z,-0.85
2022-11-15T05:54:12.532Z,-0.83
2022-11-15T05:56:39.897Z,-0.84
2022-11-15T05:59:08.361Z,-0.81
2022-11-15T06:01:35.030Z,-0.79
2022-11-15T06:04:01.573Z,-0.77
2022-11-15T06:06:29.548Z,-0.75
2022-11-15T06:08:56.199Z,-0.75
2022-11-15T06:11:22.837Z,-0.74
2022-11-15T06:13:49.583Z,-0.72
2022-11-15T06:16:16.048Z,-0.71
2022-11-15T06:18:42.488Z,-0.66
2022-11-15T06:21:08.999Z,-0.57
2022-11-15T06:23:36.446Z,-0.42
2022-11-15T06:26:03.925Z,-0.26
2022-11-15T06:28:34.324Z,-0.08
2022-11-15T06:31:09.008Z,0.12
2022-11-15T06:33:35.958Z,0.36
2022-11-15T06:36:11.904Z,0.60
2022-11-15T06:38:41.246Z,0.88
2022-11-15T06:41:10.019Z,1.12
2022-11-15T06:43:37.376Z,1.35
2022-11-15T06:46:05.138Z,1.54
2022-11-15T06:48:33.211Z,1.74
2022-11-15T06:51:01.098Z,1.99
2022-11-15T06:53:29.143Z,2.27
2022-11-15T06:56:00.310Z,2.51
2022-11-15T06:58:26.854Z,2.70
2022-11-15T07:00:53.668Z,2.60
2022-11-15T07:03:20.140Z,2.45
2022-11-15T07:05:55.079Z,2.42
2022-11-15T07:08:23.360Z,2.49
2022-11-15T07:10:50.310Z,2.57
2022-11-15T07:13:17.158Z,2.65
2022-11-15T07:15:43.694Z,2.67
2022-11-15T07:18:10.351Z,2.66
2022-11-15T07:20:36.974Z,2.71
2022-11-15T07:23:05.230Z,2.80
2022-11-15T07:25:32.330Z,2.90
2022-11-15T07:28:00.535Z,3.04
2022-11-15T07:30:28.362Z,3.15
2022-11-15T07:33:00.139Z,3.26
2022-11-15T07:35:28.098Z,3.38
2022-11-15T07:37:59.684Z,3.48
2022-11-15T07:40:31.479Z,3.60
2022-11-15T07:43:02.413Z,3.77
2022-11-15T07:45:29.313Z,3.95
2022-11-15T07:47:56.678Z,4.10
2022-11-15T07:50:25.058Z,4.29
2022-11-15T07:52:59.988Z,4.51
2022-11-15T07:55:28.686Z,4.75
2022-11-15T07:58:01.637Z,4.96
2022-11-15T08:00:28.117Z,5.25
2022-11-15T08:03:06.540Z,5.56
2022-11-15T08:05:33.381Z,5.93
2022-11-15T08:08:00.223Z,6.32
2022-11-15T08:10:28.239Z,6.67
2022-11-15T08:13:11.790Z,7.08
2022-11-15T08:15:38.946Z,7.53
2022-11-15T08:18:16.840Z,7.88
2022-11-15T08:20:44.259Z,8.19
2022-11-15T08:23:12.867Z,8.47
2022-11-15T08:25:39.899Z,8.65
2022-11-15T08:28:08.805Z,8.90
2022-11-15T08:30:38.240Z,9.13
2022-11-15T08:33:04.746Z,9.34
2022-11-15T08:35:31.592Z,9.62
2022-11-15T08:37:58.121Z,9.69
2022-11-15T08:40:24.991Z,9.73
2022-11-15T08:42:51.747Z,9.86
2022-11-15T08:45:18.355Z,10.03
2022-11-15T08:47:47.413Z,10.12
2022-11-15T08:50:17.793Z,10.09
2022-11-15T08:52:44.349Z,10.24
2022-11-15T08:55:11.096Z,10.45
2022-11-15T08:57:37.945Z,10.57
2022-11-15T09:00:05.194Z,10.85
2022-11-15T09:02:31.667Z,11.09
2022-11-15T09:04:58.186Z,11.28
2022-11-15T09:07:24.919Z,11.32
2022-11-15T09:09:51.578Z,11.33
2022-11-15T09:12:18.219Z,11.33
2022-11-15T09:14:44.870Z,11.46
2022-11-15T09:17:11.432Z,11.54
2022-11-15T09:19:37.948Z,11.45
2022-11-15T09:22:07.869Z,11.44
2022-11-15T09:24:35.141Z,11.48
2022-11-15T09:27:01.660Z,11.56
2022-11-15T09:29:28.126Z,11.55
2022-11-15T09:31:54.748Z,11.59
2022-11-15T09:34:21.286Z,11.73
2022-11-15T09:36:48.132Z,11.85
2022-11-15T09:39:14.861Z,11.88
2022-11-15T09:41:59.583Z,11.91
2022-11-15T09:44:56.711Z,11.99
2022-11-15T09:47:35.572Z,12.12
2022-11-15T09:50:09.041Z,12.24
2022-11-15T09:52:37.964Z,12.27
2022-11-15T09:55:06.209Z,12.24
2022-11-15T09:57:42.488Z,12.24
2022-11-15T10:03:45.095Z,12.17
2022-11-15T10:06:25.748Z,12.31
2022-11-15T10:09:00.539Z,12.48
2022-11-15T10:11:37.354Z,12.54
2022-11-15T10:14:36.284Z,12.46
2022-11-15T10:17:28.015Z,12.37
2022-11-15T10:20:06.027Z,12.26
2022-11-15T10:22:54.086Z,12.18
2022-11-15T10:25:20.677Z,12.16
2022-11-15T10:28:02.122Z,12.05
2022-11-15T10:30:39.028Z,11.89
2022-11-15T10:33:18.432Z,11.85
2022-11-15T10:35:44.918Z,11.84
2022-11-15T10:38:12.859Z,11.86
2022-11-15T10:40:41.790Z,11.80
2022-11-15T10:43:11.148Z,11.84
2022-11-15T10:45:39.024Z,11.84
2022-11-15T10:48:14.678Z,11.75
2022-11-15T10:50:43.549Z,11.75
2022-11-15T10:53:46.931Z,11.73
2022-11-15T10:56:15.787Z,11.82
2022-11-15T10:58:52.621Z,11.91
2022-11-15T11:01:23.696Z,12.04
2022-11-15T11:04:04.848Z,12.21
2022-11-15T11:06:46.730Z,12.37
2022-11-15T11:09:36.790Z,12.36
2022-11-15T11:12:06.735Z,12.32
2022-11-15T11:14:38.629Z,12.26
2022-11-15T11:17:18.604Z,12.25
2022-11-15T11:19:48.146Z,12.26
2022-11-15T11:22:41.516Z,12.30
2022-11-15T11:25:36.651Z,12.37
2022-11-15T11:28:32.733Z,12.48
2022-11-15T11:31:26.438Z,12.55
2022-11-15T11:34:05.679Z,12.61
2022-11-15T11:36:35.080Z,12.64
2022-11-15T11:39:18.210Z,12.62
2022-11-15T11:41:56.556Z,12.63
2022-11-15T11:44:32.178Z,12.69
2022-11-15T11:47:07.829Z,12.77
2022-11-15T11:49:42.440Z,12.88
2022-11-15T11:52:11.679Z,13.11
2022-11-15T11:54:59.305Z,13.21
2022-11-15T11:57:41.096Z,13.31
2022-11-15T12:00:21.619Z,13.36
2022-11-15T12:03:01.761Z,13.48
2022-11-15T12:05:31.745Z,13.54
2022-11-15T12:08:05.665Z,13.61
2022-11-15T12:10:34.469Z,13.66
2022-11-15T12:13:14.375Z,13.70
2022-11-15T12:15:49.062Z,13.72
2022-11-15T12:18:17.564Z,13.69
2022-11-15T12:20:56.467Z,13.62
2022-11-15T12:23:36.312Z,13.67
2022-11-15T12:26:16.983Z,13.74
2022-11-15T12:29:06.475Z,13.77
2022-11-15T12:31:41.603Z,13.78
2022-11-15T12:34:17.035Z,13.81
2022-11-15T12:36:48.032Z,13.79
2022-11-15T12:39:15.282Z,13.78
2022-11-15T12:41:44.063Z,13.75
2022-11-15T12:44:33.427Z,13.69
2022-11-15T12:47:05.125Z,13.56
2022-11-15T12:49:31.532Z,13.45
2022-11-15T12:51:58.062Z,13.40
2022-11-15T12:54:24.623Z,13.38
2022-11-15T12:57:03.546Z,13.34
2022-11-15T13:00:14.829Z,13.28
2022-11-15T13:02:45.185Z,13.21
2022-11-15T13:05:14.670Z,13.18
2022-11-15T13:07:41.265Z,13.17
2022-11-15T13:10:11.121Z,13.16
2022-11-15T13:12:37.639Z,13.15
2022-11-15T13:15:13.234Z,13.11
2022-11-15T13:17:44.676Z,13.06
2022-11-15T13:20:14.394Z,12.96
2022-11-15T13:22:48.648Z,12.88
2022-11-15T13:25:44.668Z,12.79
2022-11-15T13:28:17.134Z,12.70
2022-11-15T13:30:53.870Z,12.61
2022-11-15T13:33:25.879Z,12.51
2022-11-15T13:35:58.826Z,12.41
2022-11-15T13:38:25.228Z,12.32
2022-11-15T13:40:51.876Z,12.25
2022-11-15T13:43:28.500Z,12.18
2022-11-15T13:46:34.033Z,12.09
2022-11-15T13:49:06.256Z,12.03
2022-11-15T13:51:53.073Z,11.97
2022-11-15T13:54:34.510Z,11.90
2022-11-15T13:57:03.773Z,11.84
2022-11-15T13:59:34.362Z,11.79
2022-11-15T14:02:13.433Z,11.74
2022-11-15T14:04:49.176Z,11.69
2022-11-15T14:07:21.350Z,11.62
2022-11-15T14:09:48.671Z,11.55
2022-11-15T14:12:51.315Z,11.51
2022-11-15T14:15:32.954Z,11.43
2022-11-15T14:18:00.012Z,11.31
2022-11-15T14:20:34.092Z,11.17
2022-11-15T14:23:06.151Z,11.05
2022-11-15T14:25:35.114Z,10.98
2022-11-15T14:28:23.089Z,10.96
2022-11-15T14:30:50.744Z,10.95
2022-11-15T14:33:30.938Z,10.93
2022-11-15T14:35:59.952Z,10.93
2022-11-15T14:38:27.181Z,10.89
2022-11-15T14:40:55.179Z,10.86
2022-11-15T14:43:21.901Z,10.81
2022-11-15T14:45:48.570Z,10.71
2022-11-15T14:48:15.283Z,10.58
2022-11-15T14:50:41.987Z,10.45
2022-11-15T14:53:13.377Z,10.34
2022-11-15T14:55:39.941Z,10.25
2022-11-15T14:58:07.599Z,10.18
2022-11-15T15:00:35.844Z,10.09
2022-11-15T15:03:03.128Z,10.01
2022-11-15T15:05:35.603Z,9.94
2022-11-15T15:08:03.231Z,9.86
2022-11-15T15:10:42.237Z,9.77
2022-11-15T15:13:24.205Z,9.68
2022-11-15T15:15:52.290Z,9.56
2022-11-15T15:18:20.755Z,9.46
2022-11-15T15:20:55.399Z,9.37
2022-11-15T15:23:22.032Z,9.30
2022-11-15T15:25:48.995Z,9.24
2022-11-15T15:28:16.151Z,9.18
2022-11-15T15:30:42.692Z,9.13
2022-11-15T15:33:09.130Z,9.08
2022-11-15T15:35:36.393Z,9.05
2022-11-15T15:38:03.957Z,9.01
2022-11-15T15:40:33.403Z,8.99
2022-11-15T15:43:00.511Z,8.95
2022-11-15T15:45:27.970Z,8.95
2022-11-15T15:47:54.619Z,8.94
2022-11-15T15:50:22.694Z,8.93
2022-11-15T15:52:50.379Z,8.92
2022-11-15T15:55:17.106Z,8.89
2022-11-15T15:57:43.578Z,8.88
2022-11-15T16:00:10.803Z,8.85
2022-11-15T16:02:40.429Z,8.84
2022-11-15T16:05:08.438Z,8.81
2022-11-15T16:07:35.799Z,8.78
2022-11-15T16:10:03.985Z,8.75
2022-11-15T16:12:35.577Z,8.75
2022-11-15T16:15:03.613Z,8.75
2022-11-15T16:17:34.562Z,8.75
2022-11-15T16:20:01.462Z,8.74
2022-11-15T16:22:27.907Z,8.73
2022-11-15T16:24:54.344Z,8.72
2022-11-15T16:27:22.605Z,8.71
2022-11-15T16:29:49.865Z,8.70
2022-11-15T16:32:16.949Z,8.68
2022-11-15T16:34:48.542Z,8.66
2022-11-15T16:37:24.636Z,8.64
2022-11-15T16:39:51.585Z,8.61
2022-11-15T16:42:18.229Z,8.56
2022-11-15T16:44:44.790Z,8.53
2022-11-15T16:47:20.636Z,8.50
2022-11-15T16:49:47.172Z,8.47
2022-11-15T16:52:17.528Z,8.45
2022-11-15T16:54:46.794Z,8.41
2022-11-15T16:57:13.253Z,8.39
2022-11-15T16:59:39.797Z,8.36
2022-11-15T17:02:12.604Z,8.35
2022-11-15T17:04:39.121Z,8.36
2022-11-15T17:07:05.623Z,8.35
2022-11-15T17:09:32.199Z,8.34
2022-11-15T17:11:58.736Z,8.30
2022-11-15T17:14:25.146Z,8.27
2022-11-15T17:16:51.611Z,8.23
2022-11-15T17:19:20.728Z,8.16
2022-11-15T17:21:48.432Z,8.10
2022-11-15T17:24:15.336Z,8.04
2022-11-15T17:26:41.788Z,7.95
2022-11-15T17:29:08.962Z,7.90
2022-11-15T17:31:36.507Z,7.87
2022-11-15T17:34:04.773Z,7.85
2022-11-15T17:36:31.569Z,7.83
2022-11-15T17:38:59.810Z,7.82
2022-11-15T17:41:28.393Z,7.81
2022-11-15T17:43:59.034Z,7.79
2022-11-15T17:46:26.595Z,7.78
2022-11-15T17:48:53.143Z,7.76
2022-11-15T17:51:19.689Z,7.73
2022-11-15T17:53:47.548Z,7.71
2022-11-15T17:56:16.589Z,7.68
2022-11-15T17:58:54.760Z,7.65
2022-11-15T18:01:28.651Z,7.61
2022-11-15T18:03:56.819Z,7.59
2022-11-15T18:06:24.828Z,7.55
2022-11-15T18:08:53.751Z,7.52
2022-11-15T18:11:23.970Z,7.50
2022-11-15T18:13:53.829Z,7.48
2022-11-15T18:16:22.713Z,7.45
2022-11-15T18:18:49.318Z,7.42
2022-11-15T18:21:18.759Z,7.40
2022-11-15T18:23:45.802Z,7.40
2022-11-15T18:26:14.547Z,7.40
2022-11-15T18:28:44.940Z,7.41
2022-11-15T18:31:26.024Z,7.42
2022-11-15T18:33:53.358Z,7.44
2022-11-15T18:36:22.852Z,7.45
2022-11-15T18:38:57.552Z,7.44
2022-11-15T18:41:25.060Z,7.42
2022-11-15T18:43:51.863Z,7.40
2022-11-15T18:46:21.062Z,7.37
2022-11-15T18:48:49.199Z,7.36
2022-11-15T18:51:18.546Z,7.35
2022-11-15T18:53:46.367Z,7.34
2022-11-15T18:56:18.543Z,7.34
2022-11-15T18:58:54.690Z,7.34
2022-11-15T19:01:23.663Z,7.32
2022-11-15T19:03:52.810Z,7.31
2022-11-15T19:06:22.076Z,7.31
2022-11-15T19:08:51.215Z,7.31
2022-11-15T19:11:20.617Z,7.30
2022-11-15T19:13:47.874Z,7.31
2022-11-15T19:16:16.166Z,7.30
2022-11-15T19:18:42.941Z,7.31
2022-11-15T19:21:14.871Z,7.32
2022-11-15T19:23:43.148Z,7.32
2022-11-15T19:26:12.305Z,7.33
2022-11-15T19:28:39.612Z,7.33
2022-11-15T19:31:08.609Z,7.31
2022-11-15T19:33:35.512Z,7.30
2022-11-15T19:36:04.077Z,7.28
2022-11-15T19:38:32.035Z,7.27
2022-11-15T19:41:02.598Z,7.27
2022-11-15T19:43:30.218Z,7.26
2022-11-15T19:46:02.318Z,7.23
2022-11-15T19:48:34.165Z,7.20
2022-11-15T19:51:10.016Z,7.19
2022-11-15T19:53:37.236Z,7.19
2022-11-15T19:56:05.761Z,7.19
2022-11-15T19:58:32.916Z,7.18
2022-11-15T20:01:26.779Z,7.17
2022-11-15T20:03:55.194Z,7.17
2022-11-15T20:06:24.311Z,7.17
2022-11-15T20:08:51.128Z,7.14
2022-11-15T20:11:18.390Z,7.11
2022-11-15T20:13:45.850Z,7.06
2022-11-15T20:16:16.839Z,7.04
2022-11-15T20:18:43.740Z,7.02
2022-11-15T20:21:10.795Z,6.99
2022-11-15T20:23:37.301Z,6.99
2022-11-15T20:26:03.878Z,6.98
2022-11-15T20:28:30.672Z,6.97
2022-11-15T20:31:00.397Z,6.97
2022-11-15T20:33:27.691Z,6.96
2022-11-15T20:35:54.647Z,6.96
2022-11-15T20:38:22.312Z,6.96
2022-11-15T20:40:50.245Z,6.96
2022-11-15T20:43:19.283Z,6.96
2022-11-15T20:45:47.323Z,6.96
2022-11-15T20:48:15.337Z,6.96
2022-11-15T20:50:44.175Z,6.95
2022-11-15T20:53:14.762Z,6.96
2022-11-15T20:55:43.039Z,6.98
2022-11-15T20:58:11.025Z,6.98
2022-11-15T21:00:37.719Z,6.98
2022-11-15T21:03:05.631Z,6.97
2022-11-15T21:05:34.028Z,6.96
2022-11-15T21:08:00.753Z,6.94
2022-11-15T21:10:27.292Z,6.93
2022-11-15T21:12:53.828Z,6.93
2022-11-15T21:15:20.342Z,6.93
2022-11-15T21:17:47.447Z,6.92
2022-11-15T21:20:14.063Z,6.92
2022-11-15T21:22:40.606Z,6.92
2022-11-15T21:25:07.671Z,6.90
2022-11-15T21:27:34.134Z,6.86
2022-11-15T21:30:00.750Z,6.83
2022-11-15T21:32:27.287Z,6.81
2022-11-15T21:34:53.827Z,6.78
2022-11-15T21:37:20.295Z,6.77
2022-11-15T21:39:47.525Z,6.76
2022-11-15T21:42:14.062Z,6.75
2022-11-15T21:44:40.602Z,6.75
2022-11-15T21:47:07.060Z,6.75
2022-11-15T21:49:33.520Z,6.74
2022-11-15T21:51:59.986Z,6.72
2022-11-15T21:54:26.448Z,6.69
2022-11-15T21:56:52.996Z,6.66
2022-11-15T21:59:19.492Z,6.64
2022-11-15T22:01:46.229Z,6.63
2022-11-15T22:04:13.470Z,6.61
2022-11-15T22:06:40.424Z,6.60
2022-11-15T22:09:07.853Z,6.58
2022-11-15T22:11:34.805Z,6.58
2022-11-15T22:14:01.960Z,6.57
2022-11-15T22:16:28.599Z,6.57
2022-11-15T22:18:55.346Z,6.55
2022-11-15T22:21:22.193Z,6.52
2022-11-15T22:23:49.042Z,6.51
2022-11-15T22:26:23.201Z,6.50
2022-11-15T22:28:50.931Z,6.49
2022-11-15T22:31:17.648Z,6.48
2022-11-15T22:33:44.419Z,6.48
2022-11-15T22:36:12.506Z,6.49
2022-11-15T22:38:39.236Z,6.47
2022-11-15T22:41:05.939Z,6.46
2022-11-15T22:43:32.594Z,6.44
2022-11-15T22:46:00.627Z,6.42
2022-11-15T22:48:35.743Z,6.39
2022-11-15T22:51:03.829Z,6.38
2022-11-15T22:53:31.292Z,6.37
2022-11-15T22:56:00.278Z,6.36
2022-11-15T22:58:29.188Z,6.34
2022-11-15T23:00:59.031Z,6.31
2022-11-15T23:03:27.444Z,6.29
2022-11-15T23:05:54.691Z,6.25
2022-11-15T23:08:23.490Z,6.20
2022-11-15T23:10:50.313Z,6.16
2022-11-15T23:13:17.041Z,6.12
2022-11-15T23:15:45.905Z,6.10
2022-11-15T23:18:12.448Z,6.07
2022-11-15T23:20:43.490Z,6.02
2022-11-15T23:23:11.474Z,5.98
2022-11-15T23:25:38.113Z,5.94
2022-11-15T23:28:06.006Z,5.92
2022-11-15T23:30:36.931Z,5.89
2022-11-15T23:33:03.576Z,5.85
2022-11-15T23:35:30.040Z,5.80
2022-11-15T23:37:56.558Z,5.73
2022-11-15T23:40:23.062Z,5.66
2022-11-15T23:42:49.639Z,5.58
2022-11-15T23:45:16.719Z,5.51
2022-11-15T23:47:44.155Z,5.43
2022-11-15T23:50:11.103Z,5.38
2022-11-15T23:52:37.643Z,5.33
2022-11-15T23:55:04.795Z,5.27
2022-11-15T23:57:31.264Z,5.22
